createdAt,value
2023-01-23T00:02:37.909Z,20.38
2023-01-23T00:05:42.204Z,20.37
2023-01-23T00:08:46.870Z,20.36
2023-01-23T00:11:49.751Z,20.37
2023-01-23T00:14:52.694Z,20.36
2023-01-23T00:17:55.679Z,20.37
2023-01-23T00:20:59.985Z,20.36
2023-01-23T00:24:03.515Z,20.36
2023-01-23T00:27:06.436Z,20.36
2023-01-23T00:30:10.908Z,20.36
2023-01-23T00:33:13.827Z,20.36
2023-01-23T00:36:19.450Z,20.34
2023-01-23T00:39:23.163Z,20.34
2023-01-23T00:42:26.167Z,20.33
2023-01-23T00:45:29.460Z,20.33
2023-01-23T00:48:32.311Z,20.32
2023-01-23T00:51:37.389Z,20.31
2023-01-23T00:54:40.235Z,20.31
2023-01-23T00:57:43.075Z,20.32
2023-01-23T01:00:46.034Z,20.32
2023-01-23T01:03:48.925Z,20.32
2023-01-23T01:06:53.454Z,20.31
2023-01-23T01:09:58.847Z,20.31
2023-01-23T01:13:03.659Z,20.30
2023-01-23T01:16:07.938Z,20.30
2023-01-23T01:19:11.829Z,20.29
2023-01-23T01:22:16.235Z,20.28
2023-01-23T01:25:19.461Z,20.27
2023-01-23T01:28:22.347Z,20.27
2023-01-23T01:31:25.515Z,20.25
2023-01-23T01:34:30.739Z,20.26
2023-01-23T01:37:36.455Z,20.26
2023-01-23T01:40:39.776Z,20.26
2023-01-23T01:43:43.750Z,20.27
2023-01-23T01:46:47.304Z,20.25
2023-01-23T01:49:53.017Z,20.25
2023-01-23T01:52:57.293Z,20.24
2023-01-23T01:56:00.495Z,20.25
2023-01-23T01:59:04.589Z,20.23
2023-01-23T02:02:13.212Z,20.23
2023-01-23T02:05:19.923Z,20.23
2023-01-23T02:08:31.586Z,20.23
2023-01-23T02:11:35.785Z,20.23
2023-01-23T02:14:38.866Z,20.23
2023-01-23T02:17:42.225Z,20.24
2023-01-23T02:20:45.550Z,20.22
2023-01-23T02:24:04.351Z,20.23
2023-01-23T02:27:08.895Z,20.23
2023-01-23T02:30:13.902Z,20.25
2023-01-23T02:33:53.752Z,20.24
2023-01-23T02:36:56.837Z,20.23
2023-01-23T02:40:00.122Z,20.23
2023-01-23T02:43:06.720Z,20.23
2023-01-23T02:46:13.154Z,20.21
2023-01-23T02:49:16.497Z,20.22
2023-01-23T02:52:19.501Z,20.22
2023-01-23T02:55:22.673Z,20.21
2023-01-23T02:58:45.284Z,20.22
2023-01-23T03:01:48.322Z,20.22
2023-01-23T03:04:51.459Z,20.21
2023-01-23T03:07:56.153Z,20.22
2023-01-23T03:10:59.276Z,20.22
2023-01-23T03:14:03.727Z,20.21
2023-01-23T03:17:06.913Z,20.20
2023-01-23T03:20:12.805Z,20.21
2023-01-23T03:23:18.378Z,20.19
2023-01-23T03:26:21.209Z,20.19
2023-01-23T03:29:44.462Z,20.19
2023-01-23T03:32:49.772Z,20.19
2023-01-23T03:35:53.165Z,20.19
2023-01-23T03:39:14.184Z,20.20
2023-01-23T03:42:17.311Z,20.20
2023-01-23T03:45:22.728Z,20.20
2023-01-23T03:48:25.621Z,20.19
2023-01-23T03:51:29.701Z,20.19
2023-01-23T03:54:32.783Z,20.18
2023-01-23T03:57:37.268Z,20.19
2023-01-23T04:00:47.166Z,20.18
2023-01-23T04:03:50.852Z,20.18
2023-01-23T04:06:53.780Z,20.18
2023-01-23T04:09:56.689Z,20.18
2023-01-23T04:12:59.592Z,20.19
2023-01-23T04:16:04.853Z,20.20
2023-01-23T04:19:07.788Z,20.20
2023-01-23T04:22:10.835Z,20.20
2023-01-23T04:25:22.324Z,20.20
2023-01-23T04:28:25.299Z,20.20
2023-01-23T04:31:29.670Z,20.19
2023-01-23T04:34:32.807Z,20.19
2023-01-23T04:37:36.614Z,20.20
2023-01-23T04:40:39.510Z,20.19
2023-01-23T04:43:42.482Z,20.19
2023-01-23T04:46:49.934Z,20.18
2023-01-23T04:49:55.717Z,20.19
2023-01-23T04:52:59.333Z,20.19
2023-01-23T04:56:03.270Z,20.19
2023-01-23T04:59:06.205Z,20.17
2023-01-23T05:02:10.777Z,20.18
2023-01-23T05:05:20.793Z,20.17
2023-01-23T05:08:25.846Z,20.17
2023-01-23T05:11:42.462Z,20.16
2023-01-23T05:14:48.018Z,20.16
2023-01-23T05:17:52.295Z,20.16
2023-01-23T05:20:55.324Z,20.15
2023-01-23T05:23:58.383Z,20.14
2023-01-23T05:27:01.368Z,20.14
2023-01-23T05:30:08.242Z,20.14
2023-01-23T05:33:12.701Z,20.15
2023-01-23T05:36:17.666Z,20.14
2023-01-23T05:39:22.346Z,20.15
2023-01-23T05:42:25.715Z,20.13
2023-01-23T05:46:01.713Z,20.13
2023-01-23T05:49:17.185Z,20.14
2023-01-23T05:52:21.889Z,20.13
2023-01-23T05:55:25.062Z,20.12
2023-01-23T05:58:27.990Z,20.12
2023-01-23T06:01:56.872Z,20.12
2023-01-23T06:05:19.552Z,20.12
2023-01-23T06:08:38.514Z,20.12
2023-01-23T06:11:43.261Z,20.13
2023-01-23T06:14:46.168Z,20.14
2023-01-23T06:17:50.370Z,20.13
2023-01-23T06:21:00.328Z,20.14
2023-01-23T06:24:04.347Z,20.13
2023-01-23T06:27:09.165Z,20.13
2023-01-23T06:30:14.787Z,20.13
2023-01-23T06:33:21.526Z,20.12
2023-01-23T06:36:26.720Z,20.13
2023-01-23T06:39:31.251Z,20.13
2023-01-23T06:42:35.359Z,20.13
2023-01-23T06:45:38.680Z,20.13
2023-01-23T06:48:41.560Z,20.13
2023-01-23T06:51:46.207Z,20.14
2023-01-23T06:54:49.659Z,20.14
2023-01-23T06:57:52.871Z,20.13
2023-01-23T07:00:56.131Z,20.14
2023-01-23T07:04:18.970Z,20.14
2023-01-23T07:07:25.675Z,20.14
2023-01-23T07:10:29.509Z,20.13
2023-01-23T07:13:32.553Z,20.14
2023-01-23T07:16:36.467Z,20.13
2023-01-23T07:19:39.334Z,20.14
2023-01-23T07:22:49.970Z,20.12
2023-01-23T07:25:52.885Z,20.14
2023-01-23T07:28:55.812Z,20.13
2023-01-23T07:32:00.889Z,20.14
2023-01-23T07:35:03.811Z,20.13
2023-01-23T07:38:08.200Z,20.14
2023-01-23T07:41:11.167Z,20.13
2023-01-23T07:44:17.994Z,20.13
2023-01-23T07:47:20.954Z,20.13
2023-01-23T07:50:24.089Z,20.12
2023-01-23T07:53:28.329Z,20.13
2023-01-23T07:56:31.293Z,20.12
2023-01-23T07:59:34.149Z,20.12
2023-01-23T08:02:38.045Z,20.12
2023-01-23T08:05:43.705Z,20.12
2023-01-23T08:08:50.285Z,20.12
2023-01-23T08:11:53.330Z,20.13
2023-01-23T08:14:56.178Z,20.14
2023-01-23T08:18:00.191Z,20.14
2023-01-23T08:21:04.302Z,20.16
2023-01-23T08:24:09.636Z,20.17
2023-01-23T08:27:15.265Z,20.18
2023-01-23T08:30:19.001Z,20.18
2023-01-23T08:33:22.519Z,20.18
2023-01-23T08:36:25.543Z,20.18
2023-01-23T08:39:29.962Z,20.20
2023-01-23T08:42:32.846Z,20.21
2023-01-23T08:45:35.707Z,20.21
2023-01-23T08:48:39.404Z,20.23
2023-01-23T08:51:42.291Z,20.24
2023-01-23T08:54:46.585Z,20.24
2023-01-23T08:57:49.367Z,20.25
2023-01-23T09:00:52.252Z,20.25
2023-01-23T09:03:55.301Z,20.26
2023-01-23T09:06:58.253Z,20.25
2023-01-23T09:10:02.573Z,20.24
2023-01-23T09:13:05.531Z,20.25
2023-01-23T09:16:09.726Z,20.26
2023-01-23T09:19:12.812Z,20.27
2023-01-23T09:22:15.801Z,20.28
2023-01-23T09:25:20.253Z,20.27
2023-01-23T09:28:23.112Z,20.28
2023-01-23T09:31:26.041Z,20.28
2023-01-23T09:34:29.268Z,20.27
2023-01-23T09:37:58.461Z,20.27
2023-01-23T09:41:10.034Z,20.25
2023-01-23T09:44:20.007Z,20.24
2023-01-23T09:47:29.985Z,20.18
2023-01-23T09:50:38.550Z,20.15
2023-01-23T09:53:42.705Z,20.14
2023-01-23T09:56:50.353Z,20.13
2023-01-23T09:59:59.856Z,20.15
2023-01-23T10:03:05.536Z,20.17
2023-01-23T10:06:22.594Z,20.18
2023-01-23T10:09:36.711Z,20.20
2023-01-23T10:12:50.350Z,20.22
2023-01-23T10:16:10.431Z,20.25
2023-01-23T10:19:25.106Z,20.27
2023-01-23T10:22:37.051Z,20.30
2023-01-23T10:25:41.987Z,20.32
2023-01-23T10:28:48.385Z,20.32
2023-01-23T10:31:55.855Z,20.30
2023-01-23T10:35:01.760Z,20.26
2023-01-23T10:38:19.190Z,20.26
2023-01-23T10:41:23.430Z,20.26
2023-01-23T10:44:27.839Z,20.27
2023-01-23T10:47:35.729Z,20.27
2023-01-23T10:50:40.672Z,20.27
2023-01-23T10:53:44.067Z,20.27
2023-01-23T10:56:51.454Z,20.28
2023-01-23T11:00:00.519Z,20.26
2023-01-23T11:03:28.970Z,20.28
2023-01-23T11:06:31.819Z,20.28
2023-01-23T11:09:46.286Z,20.27
2023-01-23T11:12:51.693Z,20.28
2023-01-23T11:15:56.860Z,20.28
2023-01-23T11:19:12.211Z,20.29
2023-01-23T11:22:28.316Z,20.29
2023-01-23T11:25:33.418Z,20.30
2023-01-23T11:28:49.053Z,20.29
2023-01-23T11:31:57.138Z,20.28
2023-01-23T11:35:12.690Z,20.27
2023-01-23T11:38:27.143Z,20.27
2023-01-23T11:41:36.578Z,20.27
2023-01-23T11:44:46.015Z,20.27
2023-01-23T11:48:05.658Z,20.29
2023-01-23T11:51:14.974Z,20.29
2023-01-23T11:54:39.041Z,20.30
2023-01-23T11:57:55.852Z,20.32
2023-01-23T12:01:08.241Z,20.33
2023-01-23T12:04:30.434Z,20.34
2023-01-23T12:07:41.278Z,20.34
2023-01-23T12:10:56.543Z,20.32
2023-01-23T12:14:08.845Z,20.32
2023-01-23T12:17:26.228Z,20.31
2023-01-23T12:20:44.363Z,20.32
2023-01-23T12:24:09.118Z,20.30
2023-01-23T12:27:23.197Z,20.29
2023-01-23T12:31:05.590Z,20.29
2023-01-23T12:34:28.350Z,20.30
2023-01-23T12:37:53.242Z,20.30
2023-01-23T12:41:07.401Z,20.31
2023-01-23T12:44:15.205Z,20.31
2023-01-23T12:47:22.522Z,20.31
2023-01-23T12:50:36.064Z,20.32
2023-01-23T12:53:45.561Z,20.32
2023-01-23T13:00:02.932Z,20.32
2023-01-23T13:03:31.322Z,20.33
2023-01-23T13:06:55.668Z,20.34
2023-01-23T13:10:25.745Z,20.33
2023-01-23T13:13:29.078Z,20.33
2023-01-23T13:16:32.464Z,20.34
2023-01-23T13:20:00.325Z,20.35
2023-01-23T13:23:21.780Z,20.35
2023-01-23T13:26:31.979Z,20.35
2023-01-23T13:29:52.513Z,20.35
2023-01-23T13:33:00.770Z,20.35
2023-01-23T13:36:14.298Z,20.35
2023-01-23T13:39:23.701Z,20.34
2023-01-23T13:42:59.505Z,20.35
2023-01-23T13:46:02.716Z,20.35
2023-01-23T14:20:40.525Z,20.35
2023-01-23T14:23:58.170Z,20.35
2023-01-23T14:27:07.818Z,20.34
2023-01-23T14:30:20.012Z,20.34
2023-01-23T14:33:25.014Z,20.35
2023-01-23T14:36:28.252Z,20.36
2023-01-23T14:39:34.072Z,20.36
2023-01-23T14:42:37.036Z,20.36
2023-01-23T14:45:40.606Z,20.36
2023-01-23T14:48:47.286Z,20.35
2023-01-23T14:52:00.319Z,20.36
2023-01-23T14:55:08.064Z,20.35
2023-01-23T14:58:16.308Z,20.35
2023-01-23T15:01:19.244Z,20.36
2023-01-23T15:04:26.590Z,20.36
2023-01-23T15:07:29.517Z,20.35
2023-01-23T15:10:36.996Z,20.36
2023-01-23T15:13:50.330Z,20.37
2023-01-23T15:17:00.816Z,20.38
2023-01-23T15:20:05.850Z,20.37
2023-01-23T15:23:25.620Z,20.36
2023-01-23T15:26:34.614Z,20.33
2023-01-23T15:29:37.551Z,20.30
2023-01-23T15:32:40.562Z,20.30
2023-01-23T15:35:45.107Z,20.31
2023-01-23T15:38:48.174Z,20.30
2023-01-23T15:41:53.532Z,20.33
2023-01-23T15:45:00.905Z,20.36
2023-01-23T15:48:04.153Z,20.40
2023-01-23T15:51:08.437Z,20.44
2023-01-23T15:54:21.681Z,20.46
2023-01-23T15:57:24.591Z,20.48
2023-01-23T16:00:29.340Z,20.51
2023-01-23T16:03:32.219Z,20.53
2023-01-23T16:06:37.100Z,20.54
2023-01-23T16:09:41.068Z,20.54
2023-01-23T16:12:46.742Z,20.54
2023-01-23T16:15:50.030Z,20.53
2023-01-23T16:18:53.413Z,20.53
2023-01-23T16:22:04.698Z,20.52
2023-01-23T16:25:16.089Z,20.52
2023-01-23T16:28:20.853Z,20.52
2023-01-23T16:31:24.207Z,20.52
2023-01-23T16:34:27.487Z,20.51
2023-01-23T16:37:31.769Z,20.50
2023-01-23T16:40:34.964Z,20.50
2023-01-23T16:43:38.533Z,20.49
2023-01-23T16:46:41.441Z,20.49
2023-01-23T16:49:51.937Z,20.48
2023-01-23T16:53:02.527Z,20.49
2023-01-23T16:56:07.090Z,20.49
2023-01-23T16:59:17.454Z,20.48
2023-01-23T17:02:23.907Z,20.48
2023-01-23T17:05:26.842Z,20.48
2023-01-23T17:08:31.139Z,20.48
2023-01-23T17:11:37.334Z,20.48
2023-01-23T17:14:43.311Z,20.48
2023-01-23T17:17:47.157Z,20.47
2023-01-23T17:20:50.638Z,20.48
2023-01-23T17:23:54.825Z,20.47
2023-01-23T17:26:57.659Z,20.46
2023-01-23T17:30:00.622Z,20.45
2023-01-23T17:33:03.530Z,20.45
2023-01-23T17:36:07.494Z,20.45
2023-01-23T17:39:12.863Z,20.45
2023-01-23T17:42:16.305Z,20.45
2023-01-23T17:45:21.760Z,20.45
2023-01-23T17:48:28.354Z,20.45
2023-01-23T17:51:33.020Z,20.45
2023-01-23T17:54:37.498Z,20.44
2023-01-23T17:57:40.334Z,20.43
2023-01-23T18:00:45.185Z,20.43
2023-01-23T18:03:49.090Z,20.43
2023-01-23T18:06:52.621Z,20.42
2023-01-23T18:09:56.882Z,20.42
2023-01-23T18:13:09.689Z,20.41
2023-01-23T18:16:21.041Z,20.41
2023-01-23T18:19:25.953Z,20.41
2023-01-23T18:22:29.314Z,20.40
2023-01-23T18:25:34.337Z,20.40
2023-01-23T18:28:47.987Z,20.39
2023-01-23T18:32:04.976Z,20.40
2023-01-23T18:35:20.016Z,20.39
2023-01-23T18:38:30.256Z,20.38
2023-01-23T18:41:34.926Z,20.37
2023-01-23T18:44:41.857Z,20.36
2023-01-23T18:47:46.246Z,20.36
2023-01-23T18:51:02.413Z,20.35
2023-01-23T18:54:20.162Z,20.34
2023-01-23T18:57:51.055Z,20.35
2023-01-23T19:01:06.786Z,20.34
2023-01-23T19:04:14.142Z,20.35
2023-01-23T19:07:19.534Z,20.34
2023-01-23T19:10:24.206Z,20.34
2023-01-23T19:13:32.702Z,20.33
2023-01-23T19:16:42.493Z,20.34
2023-01-23T19:19:52.669Z,20.33
2023-01-23T19:23:22.957Z,20.33
2023-01-23T19:26:30.899Z,20.32
2023-01-23T19:29:35.618Z,20.33
2023-01-23T19:32:38.639Z,20.32
2023-01-23T19:35:41.899Z,20.33
2023-01-23T19:38:45.206Z,20.33
2023-01-23T19:41:50.325Z,20.35
2023-01-23T19:44:54.646Z,20.35
2023-01-23T19:47:59.079Z,20.35
2023-01-23T19:51:02.169Z,20.36
2023-01-23T19:54:09.235Z,20.34
2023-01-23T19:57:13.480Z,20.35
2023-01-23T20:00:19.711Z,20.35
2023-01-23T20:03:22.926Z,20.34
2023-01-23T20:06:25.789Z,20.34
2023-01-23T20:09:28.648Z,20.35
2023-01-23T20:12:31.617Z,20.34
2023-01-23T20:15:35.804Z,20.35
2023-01-23T20:18:38.647Z,20.36
2023-01-23T20:21:41.493Z,20.35
2023-01-23T20:24:44.357Z,20.36
2023-01-23T20:27:47.221Z,20.36
2023-01-23T20:30:54.027Z,20.36
2023-01-23T20:33:56.949Z,20.36
2023-01-23T20:36:59.797Z,20.37
2023-01-23T20:40:02.824Z,20.37
2023-01-23T20:43:05.620Z,20.37
2023-01-23T20:46:10.736Z,20.37
2023-01-23T20:49:14.669Z,20.37
2023-01-23T20:52:35.255Z,20.37
2023-01-23T20:55:38.143Z,20.38
2023-01-23T20:59:00.558Z,20.39
2023-01-23T21:02:22.446Z,20.40
2023-01-23T21:05:25.434Z,20.41
2023-01-23T21:08:28.306Z,20.41
2023-01-23T21:11:31.207Z,20.40
2023-01-23T21:14:35.355Z,20.39
2023-01-23T21:17:39.728Z,20.38
2023-01-23T21:20:42.700Z,20.38
2023-01-23T21:23:48.661Z,20.37
2023-01-23T21:26:52.481Z,20.37
2023-01-23T21:29:55.398Z,20.39
2023-01-23T21:32:59.794Z,20.37
2023-01-23T21:36:03.372Z,20.38
2023-01-23T21:39:09.404Z,20.38
2023-01-23T21:42:13.127Z,20.37
2023-01-23T21:45:16.125Z,20.38
2023-01-23T21:48:20.411Z,20.37
2023-01-23T21:51:27.727Z,20.38
2023-01-23T21:54:30.593Z,20.37
2023-01-23T21:57:33.405Z,20.36
2023-01-23T22:00:53.880Z,20.35
2023-01-23T22:03:58.691Z,20.35
2023-01-23T22:07:01.604Z,20.35
2023-01-23T22:10:04.927Z,20.35
2023-01-23T22:13:07.734Z,20.35
2023-01-23T22:16:11.968Z,20.33
2023-01-23T22:19:17.510Z,20.34
2023-01-23T22:22:20.718Z,20.33
2023-01-23T22:25:23.603Z,20.33
2023-01-23T22:28:26.645Z,20.33
2023-01-23T22:31:29.552Z,20.36
2023-01-23T22:34:33.888Z,20.37
2023-01-23T22:37:36.817Z,20.36
2023-01-23T22:40:39.902Z,20.35
2023-01-23T22:43:42.820Z,20.34
2023-01-23T22:46:46.078Z,20.34
2023-01-23T22:49:50.338Z,20.33
2023-01-23T22:52:53.175Z,20.33
2023-01-23T22:55:56.007Z,20.33
2023-01-23T22:59:01.108Z,20.33
2023-01-23T23:02:04.076Z,20.33
2023-01-23T23:05:09.662Z,20.32
2023-01-23T23:08:12.610Z,20.32
2023-01-23T23:11:17.714Z,20.30
2023-01-23T23:14:20.710Z,20.31
2023-01-23T23:17:23.655Z,20.29
2023-01-23T23:20:27.964Z,20.29
2023-01-23T23:23:30.867Z,20.29
2023-01-23T23:26:34.547Z,20.29
2023-01-23T23:29:37.427Z,20.29
2023-01-23T23:32:40.238Z,20.30
2023-01-23T23:35:45.439Z,20.30
2023-01-23T23:38:48.325Z,20.29
2023-01-23T23:41:51.277Z,20.23
2023-01-23T23:44:54.492Z,20.19
2023-01-23T23:47:57.437Z,20.16
2023-01-23T23:51:02.290Z,20.15
2023-01-23T23:54:05.610Z,20.14
2023-01-23T23:57:08.558Z,20.15
